Time;durP1;ratioP1;P1;durP2;ratioP2;P2;SDS_P1;SDS_P2;PMS_P1;PMS_P2;Temp;Humidity;BMP_temperature;BMP_pressure;BME280_temperature;BME280_humidity;BME280_pressure;Samples;Min_cycle;Max_cycle;Signal;HPM_P1;HPM_P2
2023/11/01 00:01:26;;;;;;;8.23;2.33;;;12.30;99.90;;;;;;5072783;28;20024;-53
2023/11/01 00:03:51;;;;;;;2.28;1.98;;;12.20;99.90;;;;;;5072558;28;20024;-46
2023/11/01 00:06:17;;;;;;;6.22;1.80;;;12.30;99.90;;;;;;5072502;28;20031;-49
2023/11/01 00:08:42;;;;;;;3.28;1.73;;;12.20;99.90;;;;;;5072540;28;20028;-49
2023/11/01 00:11:08;;;;;;;4.95;1.90;;;12.30;99.90;;;;;;5054692;28;20032;-48
2023/11/01 00:13:34;;;;;;;3.22;1.50;;;12.30;99.90;;;;;;5072276;28;20029;-48
2023/11/01 00:15:59;;;;;;;5.20;1.67;;;12.30;99.90;;;;;;5054349;28;20081;-47
2023/11/01 00:18:25;;;;;;;5.05;2.17;;;12.30;99.90;;;;;;5072160;28;20399;-46
2023/11/01 00:20:51;;;;;;;7.35;2.25;;;12.30;99.90;;;;;;5072182;28;20511;-46
2023/11/01 00:23:16;;;;;;;2.60;1.70;;;12.30;99.90;;;;;;5072018;28;20373;-46
2023/11/01 00:25:42;;;;;;;3.88;1.90;;;12.30;99.90;;;;;;5072165;28;20036;-45
2023/11/01 00:28:07;;;;;;;7.90;1.85;;;12.20;99.90;;;;;;5072236;28;20040;-49
2023/11/01 00:30:33;;;;;;;3.78;1.83;;;12.30;99.90;;;;;;5071775;28;20437;-45
2023/11/01 00:32:59;;;;;;;9.55;2.13;;;12.30;99.90;;;;;;5071846;28;20050;-46
2023/11/01 00:35:25;;;;;;;56.70;28.90;;;12.30;99.90;;;;;;5072208;28;20029;-48
2023/11/01 00:37:50;;;;;;;12.30;5.70;;;12.30;99.90;;;;;;5071876;28;20017;-47
2023/11/01 00:40:16;;;;;;;2.03;1.60;;;12.30;99.90;;;;;;5054092;28;20103;-46
2023/11/01 00:42:42;;;;;;;4.55;1.80;;;12.30;99.90;;;;;;5071817;28;20682;-48
2023/11/01 00:45:08;;;;;;;8.13;2.38;;;12.30;99.90;;;;;;5071811;28;20396;-46
2023/11/01 00:47:34;;;;;;;2.28;1.98;;;12.30;99.90;;;;;;5071625;28;20113;-45
2023/11/01 00:49:59;;;;;;;6.10;2.15;;;12.30;99.90;;;;;;5071859;28;20437;-45
2023/11/01 00:52:25;;;;;;;5.15;1.95;;;12.20;99.90;;;;;;5071751;28;20407;-46
2023/11/01 00:54:51;;;;;;;5.30;1.70;;;12.20;99.90;;;;;;5071733;28;20073;-42
2023/11/01 00:57:16;;;;;;;7.25;2.00;;;12.20;99.90;;;;;;5071605;28;20024;-44
2023/11/01 00:59:42;;;;;;;7.00;2.10;;;12.10;99.90;;;;;;5071660;28;20024;-45
2023/11/01 01:02:07;;;;;;;6.78;2.08;;;12.10;99.90;;;;;;5071323;28;20036;-45
2023/11/01 01:04:32;;;;;;;5.45;2.22;;;12.10;99.90;;;;;;5071635;28;20032;-45
2023/11/01 01:06:58;;;;;;;3.13;1.75;;;12.00;99.90;;;;;;5053865;28;20024;-45
2023/11/01 01:09:24;;;;;;;4.88;1.85;;;11.90;99.90;;;;;;5071532;28;20111;-46
2023/11/01 01:11:49;;;;;;;3.80;1.88;;;11.90;99.90;;;;;;5071473;28;20017;-46
2023/11/01 01:14:17;;;;;;;3.70;2.10;;;12.00;99.90;;;;;;5053267;28;20032;-47
2023/11/01 01:16:43;;;;;;;3.42;1.63;;;12.00;99.90;;;;;;5071240;28;20439;-47
2023/11/01 01:19:08;;;;;;;7.32;2.33;;;12.00;99.90;;;;;;5071177;28;20021;-45
2023/11/01 01:21:34;;;;;;;4.25;1.60;;;11.90;99.90;;;;;;5071276;28;20140;-45
2023/11/01 01:24:00;;;;;;;5.07;1.42;;;12.00;99.90;;;;;;5071208;28;20032;-46
2023/11/01 01:26:25;;;;;;;13.80;2.97;;;12.00;99.90;;;;;;5071175;28;20078;-45
2023/11/01 01:28:51;;;;;;;6.20;1.70;;;11.90;99.90;;;;;;5070932;28;20074;-44
2023/11/01 01:31:16;;;;;;;3.75;1.88;;;12.00;99.90;;;;;;5071240;28;20035;-44
2023/11/01 01:33:45;;;;;;;5.57;1.83;;;12.00;99.90;;;;;;5071044;28;20074;-48
2023/11/01 01:36:11;;;;;;;8.52;3.28;;;12.00;99.90;;;;;;5071251;28;20017;-45
2023/11/01 01:38:37;;;;;;;7.15;2.10;;;12.00;99.90;;;;;;5071277;28;20017;-45
2023/11/01 01:41:03;;;;;;;5.00;1.60;;;12.00;99.90;;;;;;5071176;28;20046;-46
2023/11/01 01:43:28;;;;;;;3.28;1.58;;;12.00;99.90;;;;;;5070942;28;20391;-47
2023/11/01 01:46:10;;;;;;;4.72;1.83;;;12.00;99.90;;;;;;5053118;28;20027;-48
2023/11/01 01:48:38;;;;;;;8.18;1.98;;;12.00;99.90;;;;;;5070907;28;20039;-45
2023/11/01 01:51:08;;;;;;;6.88;1.92;;;12.00;99.90;;;;;;5070900;28;20396;-45
2023/11/01 01:53:36;;;;;;;8.43;2.30;;;11.90;99.90;;;;;;5070937;28;20028;-44
2023/11/01 01:56:03;;;;;;;7.47;2.42;;;11.90;99.90;;;;;;5070844;28;20039;-45
2023/11/01 01:58:31;;;;;;;4.45;2.15;;;11.80;99.90;;;;;;5070792;28;20017;-46
2023/11/01 02:00:58;;;;;;;7.68;2.53;;;11.90;99.90;;;;;;5073912;28;20432;-45
2023/11/01 02:03:24;;;;;;;6.85;3.17;;;11.90;99.90;;;;;;5074683;28;20017;-45
2023/11/01 02:05:51;;;;;;;6.90;2.63;;;11.90;99.90;;;;;;5056855;28;20028;-46
2023/11/01 02:08:17;;;;;;;8.23;2.90;;;11.90;99.90;;;;;;5058059;28;20107;-44
2023/11/01 02:10:42;;;;;;;8.35;2.50;;;11.80;99.90;;;;;;5076348;28;20048;-45
2023/11/01 02:13:12;;;;;;;6.47;2.67;;;11.80;99.90;;;;;;5075431;28;20471;-44
2023/11/01 02:15:43;;;;;;;4.22;2.50;;;11.80;99.90;;;;;;5075941;28;20021;-45
2023/11/01 02:18:10;;;;;;;5.28;2.97;;;11.80;99.90;;;;;;5075460;28;20439;-44
2023/11/01 02:20:38;;;;;;;5.68;2.70;;;11.70;99.90;;;;;;5074838;28;20039;-47
2023/11/01 02:23:10;;;;;;;4.85;2.53;;;11.80;99.90;;;;;;5074885;28;20025;-45
2023/11/01 02:25:37;;;;;;;16.77;2.90;;;11.80;99.90;;;;;;5074510;28;20027;-45
2023/11/01 02:28:03;;;;;;;3.92;2.17;;;11.80;99.90;;;;;;5074780;28;20059;-45
2023/11/01 02:30:29;;;;;;;6.50;2.15;;;11.80;99.90;;;;;;5074613;28;20062;-45
2023/11/01 02:32:55;;;;;;;5.85;2.40;;;11.70;99.90;;;;;;5074363;28;20032;-45
2023/11/01 02:35:20;;;;;;;4.15;1.98;;;11.70;99.90;;;;;;5074335;28;20073;-47
2023/11/01 02:37:49;;;;;;;6.45;2.72;;;11.70;99.90;;;;;;5074609;28;20028;-46
2023/11/01 02:40:16;;;;;;;7.22;2.53;;;11.80;99.90;;;;;;5074025;28;20377;-47
2023/11/01 02:42:55;;;;;;;7.95;3.75;;;11.70;99.90;;;;;;5055993;28;20494;-45
2023/11/01 02:45:21;;;;;;;9.98;2.80;;;11.70;99.90;;;;;;5074065;28;20092;-47
2023/11/01 02:47:48;;;;;;;3.95;2.55;;;11.70;99.90;;;;;;5056040;28;20029;-46
2023/11/01 02:50:16;;;;;;;4.45;2.83;;;11.70;99.90;;;;;;5074193;28;20032;-48
2023/11/01 02:52:41;;;;;;;5.35;2.63;;;11.70;99.90;;;;;;5073734;28;20376;-45
2023/11/01 02:55:10;;;;;;;6.30;2.42;;;11.70;99.90;;;;;;5073642;28;20100;-48
2023/11/01 02:57:37;;;;;;;6.90;3.00;;;11.70;99.90;;;;;;5056077;28;20445;-46
2023/11/01 03:00:07;;;;;;;3.85;2.90;;;11.70;99.90;;;;;;5073649;28;20092;-46
2023/11/01 03:02:36;;;;;;;4.68;2.65;;;11.70;99.90;;;;;;5055595;28;20043;-46
2023/11/01 03:05:03;;;;;;;8.10;3.47;;;11.80;99.90;;;;;;5055792;28;20028;-47
2023/11/01 03:07:29;;;;;;;8.40;3.15;;;11.70;99.90;;;;;;5073780;28;20059;-46
2023/11/01 03:09:54;;;;;;;9.25;4.15;;;11.70;99.90;;;;;;5055645;28;20060;-46
2023/11/01 03:12:20;;;;;;;9.30;3.40;;;11.70;99.90;;;;;;5072778;28;20032;-49
2023/11/01 03:14:45;;;;;;;5.20;2.97;;;11.70;99.90;;;;;;5073715;28;20101;-46
2023/11/01 03:17:12;;;;;;;8.00;3.10;;;11.70;99.90;;;;;;5055560;28;20086;-45
2023/11/01 03:19:38;;;;;;;6.43;2.75;;;11.60;99.90;;;;;;5073297;28;20021;-47
2023/11/01 03:22:03;;;;;;;5.70;3.35;;;11.70;99.90;;;;;;5073385;28;20035;-45
2023/11/01 03:24:29;;;;;;;5.15;2.75;;;11.70;99.90;;;;;;5073415;28;20027;-45
2023/11/01 03:26:55;;;;;;;3.47;2.95;;;11.70;99.90;;;;;;5055223;28;20025;-45
2023/11/01 03:29:21;;;;;;;8.57;3.40;;;11.70;99.90;;;;;;5073226;28;20031;-46
2023/11/01 03:31:46;;;;;;;14.00;3.60;;;11.80;99.90;;;;;;5073682;28;20078;-49
2023/11/01 03:34:12;;;;;;;6.57;3.30;;;11.80;99.90;;;;;;5073267;28;20017;-45
2023/11/01 03:36:38;;;;;;;4.75;2.40;;;11.80;99.90;;;;;;5073045;28;20012;-46
2023/11/01 03:39:08;;;;;;;5.05;2.78;;;11.70;99.90;;;;;;5072878;28;20162;-45
2023/11/01 03:41:38;;;;;;;7.65;3.22;;;11.80;99.90;;;;;;5072953;28;20025;-46
2023/11/01 03:44:04;;;;;;;3.75;2.80;;;11.80;99.90;;;;;;5072801;28;20029;-46
2023/11/01 03:46:29;;;;;;;12.38;3.72;;;11.80;99.90;;;;;;5073044;28;20028;-45
2023/11/01 03:48:55;;;;;;;5.50;2.63;;;11.80;99.90;;;;;;5072843;28;20028;-44
2023/11/01 03:51:20;;;;;;;5.85;3.40;;;11.80;99.90;;;;;;5072706;28;20107;-46
2023/11/01 03:53:46;;;;;;;9.82;2.88;;;11.70;99.90;;;;;;5072526;28;20039;-47
2023/11/01 03:56:12;;;;;;;4.10;2.95;;;11.80;99.90;;;;;;5072675;28;20365;-45
2023/11/01 03:58:37;;;;;;;5.57;2.72;;;11.80;99.90;;;;;;5072504;28;20842;-47
2023/11/01 04:01:03;;;;;;;6.57;3.15;;;11.80;99.90;;;;;;5072605;28;20566;-47
2023/11/01 04:03:28;;;;;;;6.90;3.15;;;11.80;99.90;;;;;;5072172;28;20074;-45
2023/11/01 04:05:54;;;;;;;6.90;2.80;;;11.70;99.90;;;;;;5072178;28;20024;-45
2023/11/01 04:08:20;;;;;;;5.18;2.78;;;11.80;99.90;;;;;;5072221;28;20027;-46
2023/11/01 04:10:46;;;;;;;5.38;3.15;;;11.70;99.90;;;;;;5072361;28;20013;-47
2023/11/01 04:13:12;;;;;;;13.18;3.25;;;11.70;99.90;;;;;;5072142;28;20496;-45
2023/11/01 04:15:37;;;;;;;8.05;3.17;;;11.70;99.90;;;;;;5054366;28;20023;-46
2023/11/01 04:18:03;;;;;;;6.35;2.65;;;11.70;99.90;;;;;;5072315;28;20514;-46
2023/11/01 04:20:29;;;;;;;4.28;2.60;;;11.80;99.90;;;;;;5072064;28;20013;-45
2023/11/01 04:22:54;;;;;;;6.00;3.55;;;11.70;99.90;;;;;;5071245;28;20024;-48
2023/11/01 04:25:20;;;;;;;7.75;2.88;;;11.70;99.90;;;;;;5072115;28;20101;-47
2023/11/01 04:27:46;;;;;;;5.95;3.85;;;11.70;99.90;;;;;;5054135;28;20025;-45
2023/11/01 04:30:13;;;;;;;12.70;3.42;;;11.70;99.90;;;;;;5072235;28;20372;-47
2023/11/01 04:32:39;;;;;;;5.47;2.45;;;11.70;99.90;;;;;;5053889;28;20434;-48
2023/11/01 04:35:09;;;;;;;7.30;3.15;;;11.70;99.90;;;;;;5072246;28;20042;-47
2023/11/01 04:37:38;;;;;;;8.00;2.88;;;11.70;99.90;;;;;;5072041;28;20017;-45
2023/11/01 04:40:06;;;;;;;4.28;2.63;;;11.80;99.90;;;;;;5054084;28;20040;-47
2023/11/01 04:42:32;;;;;;;6.20;3.35;;;11.80;99.90;;;;;;5072458;28;20103;-46
2023/11/01 04:44:57;;;;;;;3.15;2.50;;;11.80;99.90;;;;;;5072523;28;20112;-47
2023/11/01 04:47:23;;;;;;;3.92;2.60;;;11.80;99.90;;;;;;5072383;28;20456;-45
2023/11/01 04:49:49;;;;;;;6.13;3.28;;;11.80;99.90;;;;;;5071969;28;20051;-45
2023/11/01 04:52:14;;;;;;;11.30;4.30;;;11.80;99.90;;;;;;5071874;28;20024;-45
2023/11/01 04:54:40;;;;;;;7.00;3.03;;;11.80;99.90;;;;;;5054166;28;20078;-48
2023/11/01 04:57:05;;;;;;;7.68;2.70;;;11.70;99.90;;;;;;5071742;28;20100;-48
2023/11/01 04:59:31;;;;;;;4.00;2.92;;;11.70;99.90;;;;;;5053906;28;20020;-49
2023/11/01 05:01:58;;;;;;;7.15;2.88;;;11.70;99.90;;;;;;5071495;28;20100;-46
2023/11/01 05:04:23;;;;;;;6.03;2.80;;;11.70;99.90;;;;;;5071886;28;20029;-47
2023/11/01 05:06:50;;;;;;;7.47;2.78;;;11.70;99.90;;;;;;5071640;28;20085;-48
2023/11/01 05:09:16;;;;;;;6.45;2.80;;;11.70;99.90;;;;;;5071560;28;20020;-47
2023/11/01 05:11:43;;;;;;;8.98;2.70;;;11.70;99.90;;;;;;5072031;28;20070;-47
2023/11/01 05:14:08;;;;;;;7.28;2.70;;;11.70;99.90;;;;;;5050124;22;20042;-47
2023/11/01 05:16:34;;;;;;;8.77;2.88;;;11.70;99.90;;;;;;5008654;28;20037;-42
2023/11/01 05:18:59;;;;;;;7.43;2.63;;;11.60;99.90;;;;;;5008691;28;20094;-43
2023/11/01 05:21:25;;;;;;;5.32;2.55;;;11.70;99.90;;;;;;4991176;28;20021;-40
2023/11/01 05:23:50;;;;;;;3.60;2.25;;;11.70;99.90;;;;;;5020044;28;20100;-45
2023/11/01 05:26:16;;;;;;;12.77;2.42;;;11.70;99.90;;;;;;5010797;28;20026;-45
2023/11/01 05:28:42;;;;;;;6.97;2.47;;;11.70;99.90;;;;;;5010852;28;20085;-44
2023/11/01 05:31:11;;;;;;;6.78;2.80;;;11.70;99.90;;;;;;5028312;28;20029;-43
2023/11/01 05:33:36;;;;;;;6.10;2.30;;;11.70;99.90;;;;;;5029947;28;20029;-43
2023/11/01 05:36:06;;;;;;;6.07;2.50;;;11.70;99.90;;;;;;5035082;28;20028;-42
2023/11/01 05:38:35;;;;;;;7.13;2.88;;;11.80;99.90;;;;;;5016688;28;20029;-43
2023/11/01 05:41:00;;;;;;;8.55;3.33;;;11.80;99.90;;;;;;5034932;28;20021;-43
2023/11/01 05:43:26;;;;;;;8.85;2.80;;;11.90;99.90;;;;;;5034896;28;20519;-42
2023/11/01 05:45:51;;;;;;;5.80;2.63;;;11.90;99.90;;;;;;5034934;28;20033;-44
2023/11/01 05:48:18;;;;;;;10.82;2.30;;;11.80;99.90;;;;;;5034991;28;20041;-43
2023/11/01 05:50:44;;;;;;;7.18;2.63;;;11.80;99.90;;;;;;5034811;28;20392;-44
2023/11/01 05:53:11;;;;;;;5.13;2.45;;;11.80;99.90;;;;;;5034575;28;20104;-45
2023/11/01 05:55:38;;;;;;;6.35;1.83;;;11.80;99.90;;;;;;5034729;28;20481;-43
2023/11/01 05:58:08;;;;;;;5.05;3.15;;;11.80;99.90;;;;;;5034799;28;20025;-45
2023/11/01 06:00:35;;;;;;;10.65;2.15;;;11.80;99.90;;;;;;5034448;28;20070;-43
2023/11/01 06:03:01;;;;;;;8.93;4.50;;;11.80;99.90;;;;;;5034407;28;20029;-46
2023/11/01 06:05:26;;;;;;;7.57;2.45;;;11.80;99.90;;;;;;5034706;28;20037;-46
2023/11/01 06:07:52;;;;;;;4.20;1.90;;;11.80;99.90;;;;;;5034904;28;20021;-49
2023/11/01 06:10:18;;;;;;;8.07;2.83;;;11.90;99.90;;;;;;5034707;28;20021;-43
2023/11/01 06:12:44;;;;;;;4.40;2.38;;;11.90;99.90;;;;;;5034834;28;20026;-44
2023/11/01 06:15:10;;;;;;;7.13;2.42;;;11.90;99.90;;;;;;5035073;28;20047;-42
2023/11/01 06:17:37;;;;;;;4.85;2.55;;;11.90;99.90;;;;;;5035026;28;20026;-44
2023/11/01 06:20:04;;;;;;;6.35;2.20;;;11.90;99.90;;;;;;5016912;28;20078;-45
2023/11/01 06:22:30;;;;;;;11.35;2.33;;;12.00;99.90;;;;;;5034857;28;20057;-43
2023/11/01 06:24:55;;;;;;;9.32;2.47;;;11.90;99.90;;;;;;5034940;28;20064;-43
2023/11/01 06:27:21;;;;;;;6.72;2.40;;;11.90;99.90;;;;;;5034707;28;20032;-46
2023/11/01 06:29:46;;;;;;;8.63;2.47;;;11.90;99.90;;;;;;5034714;28;20512;-43
2023/11/01 06:32:12;;;;;;;9.60;2.47;;;11.90;99.90;;;;;;5034769;28;20065;-42
2023/11/01 06:34:37;;;;;;;6.40;2.13;;;11.90;99.90;;;;;;5034616;28;20022;-43
2023/11/01 06:37:04;;;;;;;8.05;2.30;;;11.90;99.90;;;;;;5034594;28;20049;-48
2023/11/01 06:39:29;;;;;;;5.50;2.53;;;11.90;99.90;;;;;;5034389;28;20082;-45
2023/11/01 06:41:55;;;;;;;6.47;2.42;;;11.90;99.90;;;;;;5034576;28;20026;-45
2023/11/01 06:44:20;;;;;;;8.40;2.65;;;11.90;99.90;;;;;;5034534;28;20348;-45
2023/11/01 06:46:46;;;;;;;3.95;2.60;;;11.90;99.90;;;;;;5030860;28;20434;-43
2023/11/01 06:49:11;;;;;;;11.95;2.53;;;12.00;99.90;;;;;;5013291;28;20074;-50
2023/11/01 06:51:37;;;;;;;5.55;2.92;;;12.00;99.90;;;;;;5030782;28;20124;-42
2023/11/01 06:54:03;;;;;;;7.90;2.35;;;12.00;99.90;;;;;;5030758;28;20481;-46
2023/11/01 06:56:28;;;;;;;5.57;2.20;;;12.00;99.90;;;;;;5030683;28;20025;-46
2023/11/01 06:58:53;;;;;;;5.82;2.40;;;12.00;99.90;;;;;;5030781;28;20026;-47
2023/11/01 07:01:19;;;;;;;7.53;2.85;;;12.00;99.90;;;;;;5030976;28;20458;-43
2023/11/01 07:03:44;;;;;;;4.32;1.92;;;12.00;99.90;;;;;;5030550;28;20025;-46
2023/11/01 07:06:10;;;;;;;6.55;3.20;;;12.00;99.90;;;;;;5031182;28;20026;-47
2023/11/01 07:08:37;;;;;;;3.65;2.15;;;12.00;99.90;;;;;;5030842;28;20108;-43
2023/11/01 07:11:03;;;;;;;6.57;2.60;;;12.00;99.90;;;;;;5031552;28;20029;-45
2023/11/01 07:13:29;;;;;;;6.20;1.98;;;12.00;99.90;;;;;;5030643;28;20025;-46
2023/11/01 07:15:54;;;;;;;7.43;3.08;;;12.10;99.90;;;;;;5031206;28;20021;-43
2023/11/01 07:18:20;;;;;;;5.55;2.10;;;12.10;99.90;;;;;;5031837;28;20026;-40
2023/11/01 07:20:45;;;;;;;14.70;2.95;;;12.10;99.90;;;;;;5031402;28;20033;-43
2023/11/01 07:23:11;;;;;;;4.15;2.03;;;12.20;99.90;;;;;;5031419;28;20035;-45
2023/11/01 07:25:36;;;;;;;3.08;1.80;;;12.20;99.90;;;;;;5031026;28;20030;-42
2023/11/01 07:28:02;;;;;;;6.25;2.50;;;12.30;99.90;;;;;;5030662;28;20074;-44
2023/11/01 07:30:27;;;;;;;6.03;2.10;;;12.30;99.90;;;;;;5012390;28;20029;-44
2023/11/01 07:32:53;;;;;;;2.78;1.85;;;12.30;99.90;;;;;;5030338;28;20026;-42
2023/11/01 07:35:18;;;;;;;9.43;2.20;;;12.40;99.90;;;;;;5030338;28;20061;-43
2023/11/01 07:37:44;;;;;;;4.68;2.30;;;12.40;99.90;;;;;;5030346;28;20033;-43
2023/11/01 07:40:10;;;;;;;5.70;2.50;;;12.40;99.90;;;;;;5030187;28;20094;-45
2023/11/01 07:42:38;;;;;;;5.15;2.10;;;12.50;99.90;;;;;;5012778;28;20030;-46
2023/11/01 07:45:04;;;;;;;4.82;2.05;;;12.50;99.90;;;;;;5030108;28;20510;-48
2023/11/01 07:47:30;;;;;;;3.55;1.60;;;12.50;99.90;;;;;;5030069;28;20455;-44
2023/11/01 07:49:55;;;;;;;4.45;2.15;;;12.60;99.90;;;;;;5030048;28;20022;-47
2023/11/01 07:52:21;;;;;;;5.97;2.05;;;12.60;99.90;;;;;;5030279;28;20074;-42
2023/11/01 07:54:46;;;;;;;9.45;2.50;;;12.60;99.90;;;;;;5030089;28;20032;-46
2023/11/01 07:57:12;;;;;;;4.45;3.08;;;12.70;99.90;;;;;;5028674;28;20026;-49
2023/11/01 07:59:37;;;;;;;6.35;2.20;;;12.80;99.90;;;;;;5029799;28;20053;-47
2023/11/01 08:02:03;;;;;;;6.00;2.35;;;12.90;99.90;;;;;;5029966;28;20492;-44
2023/11/01 08:04:29;;;;;;;9.15;2.40;;;13.00;99.90;;;;;;5011991;28;20029;-45
2023/11/01 08:06:55;;;;;;;4.85;2.08;;;13.10;99.90;;;;;;5030166;28;20066;-48
2023/11/01 08:09:21;;;;;;;9.65;2.10;;;13.20;99.90;;;;;;5029659;28;20419;-43
2023/11/01 08:11:47;;;;;;;6.63;1.90;;;13.30;99.90;;;;;;5029690;28;20124;-48
2023/11/01 08:14:12;;;;;;;4.88;2.28;;;13.40;99.90;;;;;;5029664;28;20128;-46
2023/11/01 08:16:38;;;;;;;3.83;1.98;;;13.40;99.90;;;;;;5011981;28;20025;-46
2023/11/01 08:19:03;;;;;;;5.90;2.38;;;13.50;99.90;;;;;;5029754;28;20433;-44
2023/11/01 08:21:29;;;;;;;10.95;2.42;;;13.50;99.90;;;;;;5029691;28;20022;-45
2023/11/01 08:23:54;;;;;;;5.80;1.88;;;13.60;99.90;;;;;;5029565;28;20101;-45
2023/11/01 08:26:20;;;;;;;5.95;1.63;;;13.60;99.90;;;;;;5029875;28;20032;-43
2023/11/01 08:28:46;;;;;;;7.30;1.83;;;13.70;99.90;;;;;;5011935;28;20469;-44
2023/11/01 08:31:12;;;;;;;12.77;2.95;;;13.70;99.90;;;;;;5029875;28;20044;-44
2023/11/01 08:33:38;;;;;;;9.02;2.78;;;13.70;99.90;;;;;;5029554;28;20346;-43
2023/11/01 08:36:04;;;;;;;6.03;2.25;;;13.60;99.90;;;;;;5029937;28;20033;-42
2023/11/01 08:38:31;;;;;;;4.43;1.95;;;13.50;99.90;;;;;;5029395;28;20030;-44
2023/11/01 08:40:57;;;;;;;7.47;1.75;;;13.40;99.90;;;;;;5029658;28;20022;-45
2023/11/01 08:43:22;;;;;;;8.93;2.92;;;13.40;99.90;;;;;;5029382;28;20112;-46
2023/11/01 08:45:48;;;;;;;5.20;1.90;;;13.40;99.90;;;;;;5029208;28;20033;-47
2023/11/01 08:48:13;;;;;;;5.05;1.52;;;13.50;99.90;;;;;;5029452;28;20029;-47
2023/11/01 08:50:39;;;;;;;5.63;2.22;;;13.60;99.90;;;;;;5011368;28;20045;-43
2023/11/01 08:53:05;;;;;;;7.93;1.80;;;13.60;99.90;;;;;;5029262;28;20540;-44
2023/11/01 08:55:31;;;;;;;4.63;1.38;;;13.80;99.90;;;;;;5029414;28;20036;-47
2023/11/01 08:57:56;;;;;;;8.77;2.53;;;14.40;99.90;;;;;;5029226;28;20112;-45
2023/11/01 09:00:22;;;;;;;3.78;1.80;;;15.10;99.90;;;;;;5028957;28;20078;-40
2023/11/01 09:02:48;;;;;;;5.93;1.70;;;15.70;99.90;;;;;;5028731;28;20050;-46
2023/11/01 09:05:15;;;;;;;1.80;1.40;;;15.90;99.90;;;;;;5028885;28;20511;-46
2023/11/01 09:07:41;;;;;;;9.25;1.98;;;16.50;99.90;;;;;;5029494;28;20564;-44
2023/11/01 09:10:09;;;;;;;3.25;1.30;;;16.80;99.90;;;;;;5037661;28;20108;-48
2023/11/01 09:12:36;;;;;;;4.95;1.85;;;17.20;99.90;;;;;;5028599;28;20029;-45
2023/11/01 09:15:01;;;;;;;5.43;1.90;;;17.10;99.90;;;;;;5028959;28;20049;-45
2023/11/01 09:17:27;;;;;;;4.68;1.90;;;17.00;99.90;;;;;;5033062;28;20055;-48
2023/11/01 09:19:52;;;;;;;6.18;1.40;;;16.70;99.90;;;;;;5039855;28;20556;-46
2023/11/01 09:22:18;;;;;;;11.40;2.20;;;16.80;99.90;;;;;;5029703;28;20033;-42
2023/11/01 09:24:43;;;;;;;3.70;1.35;;;16.60;99.90;;;;;;5041290;28;20033;-47
2023/11/01 09:27:09;;;;;;;8.82;2.67;;;16.40;99.90;;;;;;5044205;28;20115;-42
2023/11/01 09:29:34;;;;;;;3.90;1.63;;;16.30;99.90;;;;;;5038615;28;20515;-43
2023/11/01 09:32:01;;;;;;;2.50;1.70;;;16.10;99.90;;;;;;5048230;28;20166;-43
2023/11/01 09:34:26;;;;;;;5.55;1.48;;;15.80;99.90;;;;;;5048195;28;20145;-43
2023/11/01 09:36:52;;;;;;;8.88;2.35;;;15.60;99.90;;;;;;5030257;28;20116;-43
2023/11/01 09:39:18;;;;;;;4.65;1.48;;;15.40;99.90;;;;;;5030250;28;20032;-43
2023/11/01 09:41:55;;;;;;;7.63;2.15;;;15.20;99.90;;;;;;5030217;28;20025;-49
2023/11/01 09:44:20;;;;;;;4.53;1.67;;;15.10;99.90;;;;;;5048225;28;20025;-42
2023/11/01 09:46:47;;;;;;;8.43;1.80;;;15.10;99.90;;;;;;5117919;28;20042;-44
2023/11/01 09:49:15;;;;;;;5.35;1.83;;;15.20;99.90;;;;;;5131777;28;20042;-44
2023/11/01 09:51:43;;;;;;;5.35;1.38;;;15.40;99.90;;;;;;5132019;28;20121;-47
2023/11/01 09:54:09;;;;;;;4.30;1.40;;;15.60;99.90;;;;;;5132117;28;20023;-45
2023/11/01 09:56:40;;;;;;;7.97;1.30;;;15.50;99.90;;;;;;5131968;28;20023;-50
2023/11/01 09:59:08;;;;;;;3.00;1.40;;;15.70;99.90;;;;;;5040804;28;20474;-49
2023/11/01 10:01:35;;;;;;;4.80;2.65;;;15.80;99.90;;;;;;5031777;28;20096;-43
2023/11/01 10:04:01;;;;;;;7.20;2.08;;;15.80;99.90;;;;;;5035547;28;20029;-50
2023/11/01 10:06:28;;;;;;;3.67;1.70;;;15.90;99.90;;;;;;5028965;28;20546;-42
2023/11/01 10:08:54;;;;;;;5.10;1.77;;;15.80;99.90;;;;;;5028218;28;20522;-42
2023/11/01 10:11:21;;;;;;;8.90;2.20;;;15.60;99.90;;;;;;5034715;28;20544;-43
2023/11/01 10:13:47;;;;;;;4.97;1.63;;;15.40;99.90;;;;;;5037334;28;20029;-43
2023/11/01 10:16:13;;;;;;;2.72;1.50;;;15.20;99.90;;;;;;5034318;28;20033;-42
2023/11/01 10:18:39;;;;;;;5.18;2.30;;;15.10;99.90;;;;;;5028455;28;20445;-46
2023/11/01 10:21:05;;;;;;;6.90;1.73;;;15.00;99.90;;;;;;5031559;28;20078;-44
2023/11/01 10:23:31;;;;;;;10.73;2.50;;;14.90;99.90;;;;;;5031565;28;20029;-42
2023/11/01 10:25:56;;;;;;;5.53;1.73;;;14.80;99.90;;;;;;5031810;28;20041;-40
2023/11/01 10:28:23;;;;;;;7.47;1.45;;;14.70;99.90;;;;;;5042021;28;20056;-44
2023/11/01 10:30:49;;;;;;;6.50;1.55;;;14.70;99.90;;;;;;5051573;28;20057;-44
2023/11/01 10:33:15;;;;;;;3.92;1.85;;;14.60;99.90;;;;;;5049644;28;20101;-43
2023/11/01 10:35:41;;;;;;;10.20;1.90;;;14.60;99.90;;;;;;5043037;28;20030;-43
2023/11/01 10:38:07;;;;;;;9.05;1.83;;;14.60;99.90;;;;;;5032529;28;20104;-41
2023/11/01 10:40:34;;;;;;;5.95;2.72;;;14.60;99.90;;;;;;5031407;28;20026;-42
2023/11/01 10:43:02;;;;;;;3.40;1.55;;;14.70;99.90;;;;;;5036458;28;20039;-46
2023/11/01 10:45:28;;;;;;;5.07;1.60;;;14.70;99.90;;;;;;5035319;28;20041;-47
2023/11/01 10:47:55;;;;;;;8.43;1.50;;;14.60;99.90;;;;;;5031275;28;20033;-54
2023/11/01 10:50:22;;;;;;;3.78;1.10;;;14.60;99.90;;;;;;5033464;28;20417;-49
2023/11/01 10:52:48;;;;;;;4.43;2.17;;;14.60;99.90;;;;;;5030588;28;20048;-47
2023/11/01 10:55:19;;;;;;;47.33;24.45;;;14.70;99.90;;;;;;5031585;28;20477;-47
2023/11/01 10:57:48;;;;;;;10.13;4.45;;;14.80;99.90;;;;;;5135065;27;20019;-49
2023/11/01 11:00:17;;;;;;;2.05;1.20;;;14.80;99.90;;;;;;5134576;27;20019;-45
2023/11/01 11:02:52;;;;;;;9.07;1.20;;;14.90;99.90;;;;;;5134651;27;20016;-46
2023/11/01 11:05:26;;;;;;;5.10;1.08;;;14.80;99.90;;;;;;5049859;27;20022;-48
2023/11/01 11:07:53;;;;;;;3.50;0.95;;;14.80;99.90;;;;;;5030567;28;20556;-46
2023/11/01 11:10:34;;;;;;;2.70;1.10;;;14.80;99.90;;;;;;5030677;28;20037;-49
2023/11/01 11:13:09;;;;;;;2.38;0.80;;;14.80;99.90;;;;;;5030158;28;20385;-46
2023/11/01 11:15:46;;;;;;;6.65;1.17;;;14.80;99.90;;;;;;5028629;28;20561;-48
2023/11/01 11:18:18;;;;;;;7.55;1.20;;;14.80;99.90;;;;;;5028761;28;20036;-50
2023/11/01 11:20:53;;;;;;;5.13;0.98;;;14.80;99.90;;;;;;5039785;28;20049;-46
2023/11/01 11:23:21;;;;;;;5.95;0.85;;;14.70;99.90;;;;;;5030073;28;20022;-50
2023/11/01 11:25:50;;;;;;;2.35;1.15;;;14.70;99.90;;;;;;5029842;28;20033;-47
2023/11/01 11:28:18;;;;;;;3.72;0.90;;;14.70;99.90;;;;;;5030249;28;20105;-46
2023/11/01 11:30:44;;;;;;;1.65;0.80;;;14.80;99.90;;;;;;5033537;28;20059;-47
2023/11/01 11:33:12;;;;;;;2.75;1.63;;;14.90;99.90;;;;;;5029793;28;20022;-46
2023/11/01 11:35:38;;;;;;;3.72;0.88;;;14.90;99.90;;;;;;5046278;28;20089;-44
2023/11/01 11:38:34;;;;;;;2.58;0.80;;;14.80;99.90;;;;;;5034359;28;20029;-44
2023/11/01 11:41:16;;;;;;;4.97;0.88;;;14.80;99.90;;;;;;5030503;28;20022;-44
2023/11/01 11:44:11;;;;;;;2.22;1.52;;;14.80;99.90;;;;;;5030261;28;20052;-50
2023/11/01 11:46:44;;;;;;;2.13;0.80;;;14.90;99.90;;;;;;5029034;27;20598;-52
2023/11/01 11:49:28;;;;;;;2.30;0.90;;;14.80;99.90;;;;;;5033377;28;20039;-51
2023/11/01 11:52:13;;;;;;;1.75;1.15;;;14.90;99.90;;;;;;5035862;28;20022;-53
2023/11/01 11:54:39;;;;;;;4.97;1.63;;;15.00;99.90;;;;;;5024939;28;20339;-51
2023/11/01 11:57:16;;;;;;;3.97;0.90;;;15.00;99.90;;;;;;5052735;27;20092;-51
2023/11/01 11:59:42;;;;;;;1.25;0.82;;;14.90;99.90;;;;;;5076587;27;20052;-47
2023/11/01 12:02:10;;;;;;;2.28;0.80;;;15.00;99.90;;;;;;5035745;28;20025;-55
2023/11/01 12:04:36;;;;;;;2.85;0.85;;;15.00;99.90;;;;;;5045236;27;20427;-48
2023/11/01 12:07:02;;;;;;;1.90;0.90;;;15.00;99.90;;;;;;5070587;28;20038;-53
2023/11/01 12:09:28;;;;;;;6.15;1.65;;;15.10;99.90;;;;;;5053870;27;20052;-46
2023/11/01 12:11:58;;;;;;;2.80;1.10;;;15.20;99.90;;;;;;5086720;27;20029;-52
2023/11/01 12:14:28;;;;;;;4.07;0.90;;;15.20;99.90;;;;;;5032017;27;20039;-51
2023/11/01 12:16:56;;;;;;;7.97;2.15;;;15.20;99.90;;;;;;5057489;27;20556;-47
2023/11/01 12:19:23;;;;;;;9.38;5.22;;;15.10;99.90;;;;;;5038154;28;20014;-51
2023/11/01 12:21:51;;;;;;;5.07;2.03;;;15.10;99.90;;;;;;5033431;28;20028;-51
2023/11/01 12:24:20;;;;;;;1.92;0.90;;;15.00;99.90;;;;;;5049217;28;20549;-47
2023/11/01 12:27:10;;;;;;;3.72;1.08;;;15.00;99.90;;;;;;5036499;28;20104;-51
2023/11/01 12:29:44;;;;;;;7.45;1.00;;;15.00;99.90;;;;;;5029051;28;20041;-48
2023/11/01 12:32:13;;;;;;;1.23;1.13;;;15.00;99.90;;;;;;5029920;28;20473;-48
2023/11/01 12:34:46;;;;;;;4.13;1.00;;;15.00;99.90;;;;;;5029207;28;20031;-47
2023/11/01 12:37:23;;;;;;;1.65;0.85;;;15.10;99.90;;;;;;5029251;28;20096;-50
2023/11/01 12:40:05;;;;;;;4.10;1.10;;;15.00;99.90;;;;;;5048705;28;20079;-52
2023/11/01 12:42:32;;;;;;;3.80;1.23;;;15.00;99.90;;;;;;5048779;28;20025;-52
2023/11/01 12:44:58;;;;;;;5.00;0.98;;;15.00;99.90;;;;;;5047824;28;20108;-47